Terminal Aerodrome Forecast
Issued by NWS Wilmington, OH

Current Version | Previous Version | Graphics & Text | Print | Product List | Glossary Off
Versions: 1 2 3 4 5 6 7 8 9 10 11 12 13 14 15 16 17 18 19 20 21 22 23 24 25 26 27 28

000
FTUS41 KILN 202300
TAFCVG
TAF
KCVG 202330Z 2100/2206 23005KT P6SM FEW040
     FM210600 29003KT P6SM SKC
     FM211500 13004KT P6SM SCT250
     FM212300 14004KT P6SM BKN250=

USA.gov is the U.S. government's official web portal to all federal, state and local government web resources and services.